createdAt,value
2019-01-18T00:02:08.244Z,11.03
2019-01-18T00:04:36.519Z,9.25
2019-01-18T00:07:04.844Z,8.93
2019-01-18T00:09:33.123Z,12.23
2019-01-18T00:12:01.395Z,8.28
2019-01-18T00:14:29.706Z,9.35
2019-01-18T00:16:57.995Z,8.18
2019-01-18T00:19:26.276Z,9.33
2019-01-18T00:21:54.605Z,9.43
2019-01-18T00:24:22.951Z,8.10
2019-01-18T00:26:51.237Z,9.48
2019-01-18T00:29:19.567Z,13.85
2019-01-18T00:31:47.856Z,10.93
2019-01-18T00:34:16.160Z,10.63
2019-01-18T00:36:44.489Z,11.50
2019-01-18T00:39:12.774Z,12.60
2019-01-18T00:41:41.130Z,12.40
2019-01-18T00:44:09.522Z,10.63
2019-01-18T00:46:37.810Z,11.45
2019-01-18T00:49:06.098Z,10.40
2019-01-18T00:51:34.421Z,10.03
2019-01-18T00:54:02.704Z,10.48
2019-01-18T00:56:30.983Z,8.95
2019-01-18T00:58:59.310Z,9.05
2019-01-18T01:01:27.589Z,10.35
2019-01-18T01:03:55.946Z,8.88
2019-01-18T01:06:24.342Z,10.32
2019-01-18T01:08:52.635Z,11.15
2019-01-18T01:11:20.921Z,11.88
2019-01-18T01:13:49.380Z,9.70
2019-01-18T01:16:17.661Z,11.35
2019-01-18T01:18:46.014Z,10.40
2019-01-18T01:21:14.333Z,11.63
2019-01-18T01:23:42.625Z,13.48
2019-01-18T01:26:10.985Z,13.30
2019-01-18T01:28:39.311Z,11.48
2019-01-18T01:31:07.591Z,10.25
2019-01-18T01:33:36.009Z,10.70
2019-01-18T01:36:04.329Z,10.05
2019-01-18T01:38:32.628Z,10.40
2019-01-18T01:41:00.929Z,9.00
2019-01-18T01:43:29.253Z,7.87
2019-01-18T01:45:57.554Z,7.97
2019-01-18T01:48:25.839Z,10.70
2019-01-18T01:50:54.228Z,8.65
2019-01-18T01:53:22.977Z,8.80
2019-01-18T01:55:51.266Z,12.58
2019-01-18T01:58:19.665Z,8.58
2019-01-18T02:00:47.943Z,8.68
2019-01-18T02:03:16.302Z,11.20
2019-01-18T02:05:44.708Z,10.58
2019-01-18T02:08:13.065Z,8.45
2019-01-18T02:10:41.360Z,8.78
2019-01-18T02:13:09.759Z,9.65
2019-01-18T02:15:38.045Z,9.50
2019-01-18T02:18:06.346Z,11.75
2019-01-18T02:20:34.657Z,9.93
2019-01-18T02:23:03.010Z,10.55
2019-01-18T02:25:32.436Z,11.15
2019-01-18T02:28:00.757Z,10.08
2019-01-18T02:30:29.050Z,8.48
2019-01-18T02:32:57.337Z,7.35
2019-01-18T02:38:19.630Z,10.10
2019-01-18T02:40:47.923Z,11.28
2019-01-18T02:43:16.227Z,10.08
2019-01-18T02:45:44.525Z,9.45
2019-01-18T02:48:12.805Z,11.33
2019-01-18T02:50:41.094Z,12.93
2019-01-18T02:53:09.484Z,11.50
2019-01-18T02:55:37.766Z,14.63
2019-01-18T02:58:06.052Z,11.78
2019-01-18T03:00:34.394Z,9.53
2019-01-18T03:03:02.672Z,9.65
2019-01-18T03:05:30.965Z,12.03
2019-01-18T03:07:59.292Z,11.68
2019-01-18T03:10:28.916Z,13.05
2019-01-18T03:12:57.199Z,12.28
2019-01-18T03:15:25.590Z,12.05
2019-01-18T03:17:53.880Z,10.95
2019-01-18T03:20:22.165Z,13.45
2019-01-18T03:22:50.479Z,10.90
2019-01-18T03:25:21.452Z,11.08
2019-01-18T03:27:49.744Z,10.78
2019-01-18T03:30:20.803Z,12.65
2019-01-18T03:32:49.020Z,10.30
2019-01-18T03:35:19.136Z,10.53
2019-01-18T03:37:47.455Z,9.53
2019-01-18T03:40:16.879Z,9.65
2019-01-18T03:42:45.155Z,9.23
2019-01-18T03:45:15.306Z,8.38
2019-01-18T03:47:43.621Z,8.18
2019-01-18T03:50:17.081Z,8.73
2019-01-18T03:52:45.398Z,9.68
2019-01-18T03:55:13.759Z,8.38
2019-01-18T03:57:42.035Z,9.23
2019-01-18T04:00:13.464Z,9.45
2019-01-18T04:02:41.743Z,9.00
2019-01-18T04:05:10.967Z,7.83
2019-01-18T04:07:39.290Z,10.70
2019-01-18T04:10:10.891Z,11.43
2019-01-18T04:12:39.173Z,9.33
2019-01-18T04:15:10.963Z,9.55
2019-01-18T04:17:39.243Z,8.50
2019-01-18T04:20:10.462Z,8.43
2019-01-18T04:22:38.790Z,8.18
2019-01-18T04:25:10.094Z,9.05
2019-01-18T04:27:38.459Z,7.92
2019-01-18T04:30:12.507Z,5.17
2019-01-18T04:32:40.791Z,4.85
2019-01-18T04:35:10.406Z,5.25
2019-01-18T04:37:38.706Z,6.00
2019-01-18T04:40:10.299Z,6.22
2019-01-18T04:42:38.583Z,7.40
2019-01-18T04:45:08.433Z,6.42
2019-01-18T04:47:36.704Z,7.37
2019-01-18T04:50:11.053Z,6.55
2019-01-18T04:52:39.443Z,6.35
2019-01-18T04:55:09.166Z,6.70
2019-01-18T04:57:37.516Z,7.75
2019-01-18T05:00:09.175Z,5.72
2019-01-18T05:02:37.460Z,7.95
2019-01-18T05:05:06.476Z,7.05
2019-01-18T05:07:34.794Z,6.97
2019-01-18T05:10:04.821Z,6.72
2019-01-18T05:12:33.098Z,6.83
2019-01-18T05:15:01.416Z,7.60
2019-01-18T05:17:29.701Z,6.87
2019-01-18T05:19:57.976Z,6.40
2019-01-18T05:22:26.292Z,12.20
2019-01-18T05:24:54.574Z,11.15
2019-01-18T05:27:22.862Z,8.83
2019-01-18T05:29:51.264Z,7.33
2019-01-18T05:32:19.554Z,11.38
2019-01-18T05:34:47.852Z,10.80
2019-01-18T05:37:16.176Z,8.80
2019-01-18T05:39:44.454Z,7.40
2019-01-18T05:42:12.817Z,6.12
2019-01-18T05:44:41.150Z,8.43
2019-01-18T05:47:09.431Z,10.15
2019-01-18T05:49:37.721Z,12.18
2019-01-18T05:52:06.039Z,9.88
2019-01-18T05:54:34.321Z,9.30
2019-01-18T05:57:02.610Z,10.45
2019-01-18T05:59:30.945Z,7.22
2019-01-18T06:01:59.225Z,8.83
2019-01-18T06:04:27.511Z,7.58
2019-01-18T06:06:55.828Z,9.50
2019-01-18T06:09:24.176Z,8.43
2019-01-18T06:11:52.467Z,9.88
2019-01-18T06:14:20.795Z,8.33
2019-01-18T06:16:49.077Z,8.98
2019-01-18T06:19:17.346Z,9.53
2019-01-18T06:21:45.668Z,7.87
2019-01-18T06:24:13.950Z,12.20
2019-01-18T06:26:42.229Z,12.58
2019-01-18T06:29:10.574Z,9.70
2019-01-18T06:31:38.858Z,13.18
2019-01-18T06:34:07.147Z,11.00
2019-01-18T06:36:35.537Z,15.75
2019-01-18T06:39:05.519Z,15.23
2019-01-18T06:41:34.587Z,17.10
2019-01-18T06:44:02.906Z,13.13
2019-01-18T06:46:31.191Z,10.70
2019-01-18T06:48:59.745Z,11.68
2019-01-18T06:51:28.156Z,10.50
2019-01-18T06:53:56.438Z,10.28
2019-01-18T06:56:24.719Z,13.45
2019-01-18T06:58:53.036Z,10.43
2019-01-18T07:01:21.318Z,11.55
2019-01-18T07:03:49.675Z,16.85
2019-01-18T07:06:17.995Z,14.68
2019-01-18T07:08:46.273Z,12.50
2019-01-18T07:11:14.632Z,14.73
2019-01-18T07:13:42.958Z,17.05
2019-01-18T07:16:11.241Z,16.23
2019-01-18T07:18:39.526Z,14.75
2019-01-18T07:21:07.850Z,17.77
2019-01-18T07:23:36.205Z,21.82
2019-01-18T07:26:04.491Z,20.55
2019-01-18T07:28:32.812Z,18.90
2019-01-18T07:31:01.232Z,20.82
2019-01-18T07:33:29.517Z,26.57
2019-01-18T07:35:57.839Z,33.23
2019-01-18T07:38:26.124Z,31.77
2019-01-18T07:40:54.478Z,45.30
2019-01-18T07:43:22.874Z,45.23
2019-01-18T07:45:51.160Z,44.95
2019-01-18T07:48:19.442Z,48.00
2019-01-18T07:50:47.768Z,47.15
2019-01-18T07:53:16.440Z,46.53
2019-01-18T07:55:44.723Z,53.23
2019-01-18T07:58:13.044Z,49.20
2019-01-18T08:00:41.960Z,45.30
2019-01-18T08:03:10.245Z,50.80
2019-01-18T08:05:38.580Z,50.78
2019-01-18T08:08:06.934Z,53.55
2019-01-18T08:10:35.285Z,50.40
2019-01-18T08:13:03.717Z,48.63
2019-01-18T08:15:33.107Z,50.60
2019-01-18T08:18:01.576Z,49.20
2019-01-18T08:20:30.163Z,47.48
2019-01-18T08:22:58.687Z,45.75
2019-01-18T08:25:27.205Z,47.83
2019-01-18T08:27:55.607Z,49.85
2019-01-18T08:30:26.497Z,49.03
2019-01-18T09:08:16.800Z,50.07
2019-01-18T09:10:46.554Z,43.33
2019-01-18T09:13:14.921Z,43.57
2019-01-18T09:15:43.239Z,43.30
2019-01-18T09:18:11.510Z,36.97
2019-01-18T09:20:39.785Z,39.93
2019-01-18T09:23:08.096Z,37.43
2019-01-18T09:25:36.390Z,35.70
2019-01-18T09:28:04.648Z,32.37
2019-01-18T09:30:34.274Z,22.70
2019-01-18T09:33:03.688Z,24.40
2019-01-18T09:35:32.694Z,21.67
2019-01-18T09:38:02.241Z,15.80
2019-01-18T09:40:32.351Z,17.57
2019-01-18T09:43:00.626Z,17.00
2019-01-18T09:45:29.011Z,27.27
2019-01-18T09:47:57.286Z,18.17
2019-01-18T09:50:27.875Z,18.27
2019-01-18T09:52:56.339Z,16.00
2019-01-18T09:55:24.619Z,17.37
2019-01-18T09:57:52.902Z,14.80
2019-01-18T10:00:35.513Z,21.13
2019-01-18T10:03:03.861Z,29.63
2019-01-18T10:05:32.207Z,35.93
2019-01-18T10:08:00.589Z,34.80
2019-01-18T10:10:28.875Z,34.87
2019-01-18T10:12:57.146Z,34.73
2019-01-18T10:15:42.010Z,29.47
2019-01-18T10:18:10.367Z,27.57
2019-01-18T10:20:38.643Z,22.50
2019-01-18T10:23:06.960Z,21.87
2019-01-18T10:25:35.240Z,20.60
2019-01-18T10:28:03.520Z,21.70
2019-01-18T10:30:31.816Z,22.30
2019-01-18T10:33:00.100Z,22.63
2019-01-18T10:35:28.818Z,21.73
2019-01-18T10:37:57.142Z,34.43
2019-01-18T10:40:25.689Z,41.87
2019-01-18T10:42:53.995Z,43.60
2019-01-18T10:45:22.526Z,45.70
2019-01-18T10:47:51.251Z,40.83
2019-01-18T10:50:28.230Z,42.90
2019-01-18T10:52:56.519Z,44.60
2019-01-18T10:55:24.790Z,42.87
2019-01-18T10:57:53.098Z,47.23
2019-01-18T11:00:30.143Z,49.97
2019-01-18T11:02:58.523Z,45.93
2019-01-18T11:05:26.802Z,53.37
2019-01-18T11:07:55.102Z,66.60
2019-01-18T11:10:23.415Z,50.60
2019-01-18T11:12:51.694Z,52.70
2019-01-18T11:15:23.241Z,55.83
2019-01-18T11:17:51.551Z,63.87
2019-01-18T11:20:22.644Z,73.07
2019-01-18T11:22:51.751Z,62.83
2019-01-18T11:25:20.072Z,55.20
2019-01-18T11:27:50.381Z,56.40
2019-01-18T11:30:18.658Z,52.13
2019-01-18T11:32:46.980Z,51.53
2019-01-18T11:35:15.258Z,54.43
2019-01-18T11:37:43.545Z,54.97
2019-01-18T11:40:20.573Z,61.73
2019-01-18T11:42:48.859Z,55.60
2019-01-18T11:45:17.286Z,54.57
2019-01-18T11:47:45.669Z,58.27
2019-01-18T11:50:28.187Z,52.50
2019-01-18T11:52:56.499Z,56.97
2019-01-18T11:55:24.858Z,56.20
2019-01-18T11:57:53.137Z,50.47
2019-01-18T12:00:23.689Z,51.47
2019-01-18T12:02:52.048Z,50.63
2019-01-18T12:05:20.329Z,49.10
2019-01-18T12:07:48.731Z,53.50
2019-01-18T12:10:28.280Z,52.37
2019-01-18T12:12:56.605Z,53.13
2019-01-18T12:15:25.050Z,47.33
2019-01-18T12:17:53.404Z,52.47
2019-01-18T12:20:27.768Z,52.67
2019-01-18T12:22:56.259Z,57.50
2019-01-18T12:25:24.755Z,55.07
2019-01-18T12:27:53.270Z,48.17
2019-01-18T12:30:27.038Z,53.67
2019-01-18T12:32:55.457Z,55.97
2019-01-18T12:35:23.774Z,52.40
2019-01-18T12:37:52.264Z,52.73
2019-01-18T12:40:20.553Z,54.60
2019-01-18T12:42:48.877Z,54.33
2019-01-18T12:45:19.281Z,51.43
2019-01-18T12:47:47.652Z,51.27
2019-01-18T12:50:25.062Z,47.03
2019-01-18T12:52:53.336Z,47.73
2019-01-18T12:55:21.748Z,50.23
2019-01-18T12:57:51.719Z,48.70
2019-01-18T13:00:22.478Z,50.07
2019-01-18T13:02:50.770Z,50.27
2019-01-18T13:05:21.678Z,50.83
2019-01-18T13:07:50.199Z,47.50
2019-01-18T13:10:18.685Z,48.27
2019-01-18T13:12:47.067Z,52.00
2019-01-18T13:15:18.671Z,49.83
2019-01-18T13:17:47.159Z,49.77
2019-01-18T13:20:15.529Z,48.90
2019-01-18T13:22:44.039Z,51.13
2019-01-18T13:25:17.801Z,44.90
2019-01-18T13:27:46.327Z,50.13
2019-01-18T13:30:16.619Z,46.70
2019-01-18T13:32:44.887Z,46.60
2019-01-18T13:35:13.414Z,50.13
2019-01-18T13:37:41.696Z,45.77
2019-01-18T13:40:15.783Z,41.53
2019-01-18T13:42:44.089Z,36.83
2019-01-18T13:45:13.475Z,30.67
2019-01-18T13:47:42.700Z,32.93
2019-01-18T13:50:14.332Z,38.13
2019-01-18T13:52:42.822Z,47.43
2019-01-18T13:55:23.404Z,45.73
2019-01-18T13:57:51.748Z,32.20
2019-01-18T14:00:20.232Z,24.97
2019-01-18T14:02:48.815Z,22.67
2019-01-18T14:05:17.322Z,24.07
2019-01-18T14:07:45.809Z,21.13
2019-01-18T14:10:23.049Z,20.70
2019-01-18T14:12:51.396Z,30.47
2019-01-18T14:15:21.440Z,26.70
2019-01-18T14:17:50.000Z,20.27
2019-01-18T14:20:23.869Z,20.00
2019-01-18T14:22:52.645Z,16.20
2019-01-18T14:25:21.183Z,17.37
2019-01-18T14:27:49.674Z,16.83
2019-01-18T14:30:20.837Z,17.07
2019-01-18T14:32:55.155Z,17.00
2019-01-18T14:35:19.360Z,16.27
2019-01-18T14:37:47.846Z,16.70
2019-01-18T14:40:18.321Z,19.40
2019-01-18T14:42:51.209Z,20.23
2019-01-18T14:45:34.318Z,23.23
2019-01-18T14:48:02.792Z,24.13
2019-01-18T14:50:31.282Z,23.93
2019-01-18T14:52:59.807Z,36.10
2019-01-18T14:55:28.294Z,42.53
2019-01-18T14:57:56.777Z,38.07
2019-01-18T15:00:34.515Z,38.47
2019-01-18T15:03:04.561Z,36.00
2019-01-18T15:05:33.048Z,34.80
2019-01-18T15:08:01.571Z,34.53
2019-01-18T15:10:30.054Z,34.10
2019-01-18T15:13:07.704Z,37.87
2019-01-18T15:15:36.180Z,37.97
2019-01-18T15:18:04.667Z,38.83
2019-01-18T15:20:34.278Z,40.70
2019-01-18T15:23:02.965Z,40.20
2019-01-18T15:25:31.461Z,33.17
2019-01-18T15:28:00.990Z,35.73
2019-01-18T15:30:31.447Z,30.13
2019-01-18T15:33:00.798Z,29.00
2019-01-18T15:35:32.041Z,40.60
2019-01-18T15:38:00.491Z,38.23
2019-01-18T15:40:31.641Z,38.47
2019-01-18T15:43:01.168Z,50.03
2019-01-18T15:45:29.660Z,40.30
2019-01-18T15:47:58.151Z,45.47
2019-01-18T15:50:32.274Z,56.67
2019-01-18T15:53:00.806Z,43.93
2019-01-18T15:55:29.254Z,35.37
2019-01-18T15:57:57.759Z,35.47
2019-01-18T16:00:34.245Z,31.53
2019-01-18T16:03:02.766Z,33.47
2019-01-18T16:05:31.256Z,32.00
2019-01-18T16:07:59.742Z,40.90
2019-01-18T16:10:28.268Z,41.07
2019-01-18T16:12:56.803Z,65.50
2019-01-18T16:15:31.408Z,55.30
2019-01-18T16:18:00.049Z,57.53
2019-01-18T16:20:28.539Z,60.57
2019-01-18T16:22:57.024Z,61.70
2019-01-18T16:25:28.069Z,61.50
2019-01-18T16:27:56.559Z,59.50
2019-01-18T16:30:26.350Z,50.83
2019-01-18T16:32:57.430Z,43.47
2019-01-18T16:35:26.007Z,46.47
2019-01-18T16:37:54.510Z,45.90
2019-01-18T16:40:25.822Z,51.23
2019-01-18T16:43:00.506Z,50.57
2019-01-18T16:45:28.984Z,48.57
2019-01-18T16:47:57.499Z,48.40
2019-01-18T16:50:25.984Z,46.20
2019-01-18T16:52:54.488Z,47.00
2019-01-18T16:55:22.998Z,66.57
2019-01-18T16:57:51.487Z,60.73
2019-01-18T17:00:26.000Z,68.63
2019-01-18T17:02:54.725Z,68.10
2019-01-18T17:05:23.223Z,64.43
2019-01-18T17:07:51.707Z,63.17
2019-01-18T17:10:20.237Z,60.07
2019-01-18T17:12:48.752Z,56.87
2019-01-18T17:15:18.108Z,52.10
2019-01-18T17:17:46.625Z,45.23
2019-01-18T17:20:26.270Z,52.43
2019-01-18T17:22:54.802Z,47.00
2019-01-18T17:25:26.988Z,46.97
2019-01-18T17:27:55.499Z,45.03
2019-01-18T17:30:24.038Z,49.27
2019-01-18T17:32:52.528Z,51.50
2019-01-18T17:35:38.986Z,42.63
2019-01-18T17:38:16.175Z,40.43
2019-01-18T17:41:05.672Z,43.97
2019-01-18T17:44:05.397Z,39.03
2019-01-18T17:46:37.049Z,38.77
2019-01-18T17:49:14.417Z,39.23
2019-01-18T17:51:55.132Z,36.77
2019-01-18T17:54:35.406Z,37.43
2019-01-18T17:57:12.865Z,37.87
2019-01-18T17:59:59.280Z,36.03
2019-01-18T18:02:30.959Z,29.40
2019-01-18T18:05:25.308Z,29.67
2019-01-18T18:08:09.125Z,24.83
2019-01-18T18:10:49.395Z,27.20
2019-01-18T18:13:25.051Z,26.00
2019-01-18T18:16:11.632Z,27.87
2019-01-18T18:19:01.113Z,29.57
2019-01-18T18:21:50.427Z,29.43
2019-01-18T18:24:24.830Z,23.00
2019-01-18T18:27:12.943Z,22.43
2019-01-18T18:29:44.606Z,17.60
2019-01-18T18:32:18.807Z,13.93
2019-01-18T18:34:53.094Z,14.93
2019-01-18T18:37:50.341Z,15.20
2019-01-18T18:40:30.618Z,14.53
2019-01-18T18:43:11.945Z,24.00
2019-01-18T18:46:01.681Z,26.03
2019-01-18T18:48:39.397Z,23.63
2019-01-18T18:51:29.140Z,22.47
2019-01-18T18:54:24.390Z,21.33
2019-01-18T18:57:04.742Z,19.70
2019-01-18T18:59:42.345Z,18.80
2019-01-18T19:02:19.542Z,14.73
2019-01-18T19:04:56.900Z,14.47
2019-01-18T19:07:37.637Z,18.10
2019-01-18T19:10:42.150Z,16.90
2019-01-18T19:13:22.580Z,17.00
2019-01-18T19:16:02.814Z,18.00
2019-01-18T19:18:46.062Z,22.67
2019-01-18T19:21:20.684Z,23.60
2019-01-18T19:24:06.734Z,16.10
2019-01-18T19:26:38.357Z,16.03
2019-01-18T19:29:15.985Z,15.00
2019-01-18T19:31:55.975Z,14.70
2019-01-18T19:34:33.301Z,16.70
2019-01-18T19:37:26.009Z,17.27
2019-01-18T19:40:16.677Z,19.20
2019-01-18T19:43:06.872Z,22.23
2019-01-18T19:45:47.941Z,19.77
2019-01-18T19:48:34.178Z,25.00
2019-01-18T19:51:23.900Z,19.23
2019-01-18T19:54:04.396Z,25.80
2019-01-18T19:56:47.955Z,21.60
2019-01-18T19:59:19.559Z,24.77
2019-01-18T20:02:09.207Z,21.97
2019-01-18T20:04:55.640Z,21.23
2019-01-18T20:07:35.711Z,28.33
2019-01-18T20:10:28.174Z,28.57
2019-01-18T20:13:07.246Z,28.47
2019-01-18T20:15:50.760Z,26.73
2019-01-18T20:18:31.584Z,26.90
2019-01-18T20:21:12.167Z,31.07
2019-01-18T20:24:01.880Z,41.37
2019-01-18T20:26:45.009Z,41.50
2019-01-18T20:29:19.125Z,48.53
2019-01-18T20:32:20.507Z,48.47
2019-01-18T20:35:08.368Z,43.07
2019-01-18T20:37:52.136Z,37.50
2019-01-18T20:40:24.297Z,36.40
2019-01-18T20:43:19.898Z,45.53
2019-01-18T20:46:03.234Z,45.53
2019-01-18T20:48:40.880Z,42.90
2019-01-18T20:51:12.516Z,42.67
2019-01-18T20:53:53.036Z,49.13
2019-01-18T20:56:27.669Z,42.13
2019-01-18T20:58:59.295Z,43.27
2019-01-18T21:01:57.792Z,39.00
2019-01-18T21:04:50.326Z,46.00
2019-01-18T21:07:49.363Z,45.60
2019-01-18T21:10:26.609Z,41.23
2019-01-18T21:13:26.599Z,45.37
2019-01-18T21:16:06.998Z,39.77
2019-01-18T21:18:44.510Z,38.57
2019-01-18T21:21:41.675Z,34.57
2019-01-18T21:24:29.562Z,39.27
2019-01-18T21:27:07.220Z,39.33
2019-01-18T21:29:38.859Z,37.13
2019-01-18T21:32:28.540Z,34.50
2019-01-18T21:35:11.699Z,27.37
2019-01-18T21:37:43.294Z,24.37
2019-01-18T21:40:29.881Z,25.13
2019-01-18T21:43:16.413Z,26.93
2019-01-18T21:46:02.665Z,26.23
2019-01-18T21:48:42.907Z,35.83
2019-01-18T21:51:30.911Z,32.00
2019-01-18T21:54:02.512Z,28.37
2019-01-18T21:56:55.293Z,26.83
2019-01-18T21:59:51.027Z,21.77
2019-01-18T22:02:28.110Z,23.13
2019-01-18T22:05:17.667Z,22.37
2019-01-18T22:08:01.288Z,20.97
2019-01-18T22:10:32.830Z,20.90
2019-01-18T22:13:19.081Z,20.57
2019-01-18T22:16:12.956Z,20.13
2019-01-18T22:18:44.553Z,21.47
2019-01-18T22:21:37.229Z,23.90
2019-01-18T22:24:14.513Z,21.40
2019-01-18T22:27:08.531Z,17.93
2019-01-18T22:29:45.850Z,19.27
2019-01-18T22:32:26.141Z,20.93
2019-01-18T22:35:00.634Z,16.57
2019-01-18T22:37:46.846Z,17.97
2019-01-18T22:40:29.766Z,26.30
2019-01-18T22:43:21.507Z,25.37
2019-01-18T22:45:55.803Z,23.60
2019-01-18T22:48:30.076Z,18.03
2019-01-18T22:51:16.410Z,16.10
2019-01-18T22:53:47.945Z,15.93
2019-01-18T22:56:19.488Z,13.87
2019-01-18T22:58:53.546Z,15.50
2019-01-18T23:01:50.549Z,15.60
2019-01-18T23:04:33.692Z,14.40
2019-01-18T23:07:19.629Z,13.40
2019-01-18T23:10:12.255Z,13.63
2019-01-18T23:12:55.811Z,13.30
2019-01-18T23:16:01.667Z,14.43
2019-01-18T23:18:41.980Z,20.40
2019-01-18T23:21:25.710Z,20.67
2019-01-18T23:24:02.800Z,20.13
2019-01-18T23:26:55.047Z,18.43
2019-01-18T23:29:29.382Z,16.80
2019-01-18T23:32:00.943Z,18.63
2019-01-18T23:34:38.113Z,17.13
2019-01-18T23:37:27.705Z,16.97
2019-01-18T23:40:29.427Z,18.20
2019-01-18T23:43:09.610Z,18.23
2019-01-18T23:45:52.405Z,21.93
2019-01-18T23:48:58.355Z,21.40
2019-01-18T23:51:39.293Z,18.50
2019-01-18T23:54:31.865Z,17.90
2019-01-18T23:57:37.852Z,20.17
